createdAt,value
2024-05-09T00:00:30.301Z,95639.00
2024-05-09T00:01:23.454Z,95640.00
2024-05-09T00:02:22.422Z,95638.00
2024-05-09T00:03:22.474Z,95637.00
2024-05-09T00:04:22.473Z,95636.00
2024-05-09T00:05:22.462Z,95637.00
2024-05-09T00:06:22.406Z,95636.00
2024-05-09T00:07:22.426Z,95634.00
2024-05-09T00:08:22.449Z,95634.00
2024-05-09T00:09:22.424Z,95635.00
2024-05-09T00:10:29.138Z,95635.00
2024-05-09T00:11:23.535Z,95635.00
2024-05-09T00:12:22.498Z,95635.00
2024-05-09T00:13:22.402Z,95635.00
2024-05-09T00:14:22.486Z,95634.00
2024-05-09T00:15:22.431Z,95633.00
2024-05-09T00:16:22.422Z,95635.00
2024-05-09T00:17:22.460Z,95635.00
2024-05-09T00:18:22.546Z,95634.00
2024-05-09T00:19:22.569Z,95633.00
2024-05-09T00:20:28.408Z,95636.00
2024-05-09T00:21:23.378Z,95634.00
2024-05-09T00:22:22.416Z,95635.00
2024-05-09T00:23:22.470Z,95636.00
2024-05-09T00:24:22.393Z,95636.00
2024-05-09T00:25:22.468Z,95636.00
2024-05-09T00:26:22.504Z,95636.00
2024-05-09T00:27:22.448Z,95638.00
2024-05-09T00:28:22.388Z,95634.00
2024-05-09T00:29:22.464Z,95634.00
2024-05-09T00:30:31.069Z,95633.00
2024-05-09T00:31:23.432Z,95633.00
2024-05-09T00:32:22.555Z,95631.00
2024-05-09T00:33:22.600Z,95629.00
2024-05-09T00:34:22.478Z,95631.00
2024-05-09T00:35:22.531Z,95626.00
2024-05-09T00:36:22.420Z,95627.00
2024-05-09T00:37:22.420Z,95628.00
2024-05-09T00:38:22.476Z,95628.00
2024-05-09T00:39:22.431Z,95626.00
2024-05-09T00:40:30.650Z,95625.00
2024-05-09T00:41:23.440Z,95623.00
2024-05-09T00:42:22.396Z,95622.00
2024-05-09T00:43:22.472Z,95620.00
2024-05-09T00:44:22.531Z,95619.00
2024-05-09T00:45:22.425Z,95619.00
2024-05-09T00:46:23.339Z,95620.00
2024-05-09T00:47:22.604Z,95619.00
2024-05-09T00:48:22.609Z,95618.00
2024-05-09T00:49:22.566Z,95615.00
2024-05-09T00:50:29.464Z,95615.00
2024-05-09T00:51:23.501Z,95614.00
2024-05-09T00:52:22.468Z,95614.00
2024-05-09T00:53:22.487Z,95610.00
2024-05-09T00:54:22.434Z,95608.00
2024-05-09T00:55:22.409Z,95602.00
2024-05-09T00:56:22.523Z,95603.00
2024-05-09T00:57:22.460Z,95600.00
2024-05-09T00:58:22.884Z,95597.00
2024-05-09T00:59:22.516Z,95595.00
2024-05-09T01:00:30.728Z,95593.00
2024-05-09T01:01:23.490Z,95593.00
2024-05-09T01:02:22.555Z,95592.00
2024-05-09T01:03:23.191Z,95592.00
2024-05-09T01:04:22.529Z,95590.00
2024-05-09T01:05:22.470Z,95589.00
2024-05-09T01:06:22.448Z,95589.00
2024-05-09T01:07:22.468Z,95587.00
2024-05-09T01:08:22.486Z,95586.00
2024-05-09T01:09:22.476Z,95586.00
2024-05-09T01:10:28.157Z,95585.00
2024-05-09T01:11:23.577Z,95584.00
2024-05-09T01:12:22.615Z,95585.00
2024-05-09T01:13:22.492Z,95584.00
2024-05-09T01:14:22.495Z,95583.00
2024-05-09T01:15:22.493Z,95582.00
2024-05-09T01:16:22.936Z,95584.00
2024-05-09T01:17:22.606Z,95583.00
2024-05-09T01:18:22.634Z,95584.00
2024-05-09T01:19:22.581Z,95585.00
2024-05-09T01:20:32.097Z,95584.00
2024-05-09T01:21:23.498Z,95587.00
2024-05-09T01:22:22.465Z,95587.00
2024-05-09T01:23:22.548Z,95585.00
2024-05-09T01:24:22.479Z,95586.00
2024-05-09T01:25:22.491Z,95587.00
2024-05-09T01:26:22.552Z,95587.00
2024-05-09T01:27:22.467Z,95585.00
2024-05-09T01:28:22.497Z,95588.00
2024-05-09T01:29:22.645Z,95588.00
2024-05-09T01:30:31.243Z,95587.00
2024-05-09T01:31:23.523Z,95587.00
2024-05-09T01:32:22.718Z,95589.00
2024-05-09T01:33:22.636Z,95590.00
2024-05-09T01:34:22.639Z,95590.00
2024-05-09T01:35:22.634Z,95590.00
2024-05-09T01:36:22.532Z,95591.00
2024-05-09T01:37:22.498Z,95589.00
2024-05-09T01:38:22.533Z,95590.00
2024-05-09T01:39:22.493Z,95593.00
2024-05-09T01:40:29.192Z,95588.00
2024-05-09T01:41:23.545Z,95589.00
2024-05-09T01:42:22.481Z,95589.00
2024-05-09T01:43:22.532Z,95588.00
2024-05-09T01:44:22.676Z,95591.00
2024-05-09T01:45:22.486Z,95587.00
2024-05-09T01:46:22.526Z,95586.00
2024-05-09T01:47:22.657Z,95587.00
2024-05-09T01:48:22.712Z,95585.00
2024-05-09T01:49:22.725Z,95587.00
2024-05-09T01:50:34.114Z,95589.00
2024-05-09T01:51:23.574Z,95586.00
2024-05-09T01:52:22.501Z,95586.00
2024-05-09T01:53:22.510Z,95587.00
2024-05-09T01:54:22.546Z,95588.00
2024-05-09T01:55:22.554Z,95589.00
2024-05-09T01:56:22.535Z,95588.00
2024-05-09T01:57:22.492Z,95586.00
2024-05-09T01:58:22.529Z,95586.00
2024-05-09T01:59:22.624Z,95586.00
2024-05-09T02:00:33.197Z,95583.00
2024-05-09T02:01:23.630Z,95587.00
2024-05-09T02:02:22.556Z,95589.00
2024-05-09T02:03:22.754Z,95588.00
2024-05-09T02:04:22.673Z,95586.00
2024-05-09T02:05:22.591Z,95587.00
2024-05-09T02:06:22.547Z,95587.00
2024-05-09T02:07:22.530Z,95586.00
2024-05-09T02:08:22.664Z,95586.00
2024-05-09T02:09:22.517Z,95587.00
2024-05-09T02:10:26.430Z,95585.00
2024-05-09T02:11:23.646Z,95585.00
2024-05-09T02:12:22.614Z,95584.00
2024-05-09T02:13:22.577Z,95583.00
2024-05-09T02:14:22.560Z,95580.00
2024-05-09T02:15:22.542Z,95583.00
2024-05-09T02:16:22.538Z,95582.00
2024-05-09T02:17:22.922Z,95581.00
2024-05-09T02:18:22.871Z,95583.00
2024-05-09T02:19:22.736Z,95584.00
2024-05-09T02:21:22.586Z,95586.00
2024-05-09T02:22:22.594Z,95583.00
2024-05-09T02:23:22.674Z,95585.00
2024-05-09T02:24:22.706Z,95585.00
2024-05-09T02:25:22.714Z,95583.00
2024-05-09T02:26:22.823Z,95583.00
2024-05-09T02:27:22.825Z,95582.00
2024-05-09T02:28:22.880Z,95580.00
2024-05-09T02:29:23.027Z,95581.00
2024-05-09T02:30:30.574Z,95579.00
2024-05-09T02:31:23.971Z,95578.00
2024-05-09T02:32:23.034Z,95579.00
2024-05-09T02:33:23.412Z,95578.00
2024-05-09T02:34:23.146Z,95576.00
2024-05-09T02:35:23.116Z,95577.00
2024-05-09T02:36:22.968Z,95576.00
2024-05-09T02:37:22.993Z,95575.00
2024-05-09T02:38:23.062Z,95574.00
2024-05-09T02:39:23.030Z,95575.00
2024-05-09T02:41:23.103Z,95574.00
2024-05-09T02:42:23.085Z,95576.00
2024-05-09T02:43:23.086Z,95573.00
2024-05-09T02:44:23.225Z,95573.00
2024-05-09T02:45:23.151Z,95575.00
2024-05-09T02:46:23.247Z,95573.00
2024-05-09T02:47:23.414Z,95575.00
2024-05-09T02:48:23.367Z,95573.00
2024-05-09T02:49:23.441Z,95573.00
2024-05-09T02:50:30.565Z,95574.00
2024-05-09T02:51:24.367Z,95573.00
2024-05-09T02:52:23.355Z,95574.00
2024-05-09T02:53:23.416Z,95575.00
2024-05-09T02:54:23.357Z,95574.00
2024-05-09T02:55:23.369Z,95573.00
2024-05-09T02:56:23.438Z,95577.00
2024-05-09T02:57:23.390Z,95575.00
2024-05-09T02:58:23.405Z,95576.00
2024-05-09T02:59:23.515Z,95576.00
2024-05-09T03:00:29.796Z,95574.00
2024-05-09T03:01:24.418Z,95574.00
2024-05-09T03:02:23.484Z,95577.00
2024-05-09T03:03:23.811Z,95577.00
2024-05-09T03:04:23.416Z,95577.00
2024-05-09T03:05:23.431Z,95575.00
2024-05-09T03:06:23.406Z,95576.00
2024-05-09T03:07:23.410Z,95573.00
2024-05-09T03:08:23.437Z,95573.00
2024-05-09T03:09:23.379Z,95575.00
2024-05-09T03:10:28.477Z,95573.00
2024-05-09T03:11:24.553Z,95572.00
2024-05-09T03:12:23.468Z,95571.00
2024-05-09T03:13:23.394Z,95571.00
2024-05-09T03:14:23.466Z,95572.00
2024-05-09T03:15:23.426Z,95572.00
2024-05-09T03:16:23.423Z,95572.00
2024-05-09T03:17:23.584Z,95571.00
2024-05-09T03:18:23.591Z,95571.00
2024-05-09T03:19:23.515Z,95572.00
2024-05-09T03:20:27.573Z,95572.00
2024-05-09T03:21:24.425Z,95573.00
2024-05-09T03:22:23.399Z,95574.00
2024-05-09T03:23:23.564Z,95575.00
2024-05-09T03:24:23.470Z,95575.00
2024-05-09T03:25:23.447Z,95576.00
2024-05-09T03:26:23.485Z,95577.00
2024-05-09T03:27:23.423Z,95576.00
2024-05-09T03:28:23.387Z,95576.00
2024-05-09T03:29:23.415Z,95575.00
2024-05-09T03:30:30.952Z,95576.00
2024-05-09T03:31:24.409Z,95577.00
2024-05-09T03:32:23.510Z,95577.00
2024-05-09T03:33:23.849Z,95578.00
2024-05-09T03:34:23.508Z,95576.00
2024-05-09T03:35:23.625Z,95575.00
2024-05-09T03:36:23.451Z,95574.00
2024-05-09T03:37:23.417Z,95577.00
2024-05-09T03:38:23.443Z,95576.00
2024-05-09T03:39:23.435Z,95578.00
2024-05-09T03:40:26.474Z,95579.00
2024-05-09T03:41:24.495Z,95580.00
2024-05-09T03:42:23.556Z,95579.00
2024-05-09T03:43:23.447Z,95578.00
2024-05-09T03:44:23.548Z,95580.00
2024-05-09T03:45:23.425Z,95581.00
2024-05-09T03:46:23.450Z,95579.00
2024-05-09T03:47:23.734Z,95578.00
2024-05-09T03:48:23.593Z,95580.00
2024-05-09T03:49:23.543Z,95580.00
2024-05-09T03:51:23.959Z,95581.00
2024-05-09T03:52:23.423Z,95583.00
2024-05-09T03:53:23.532Z,95584.00
2024-05-09T03:54:23.536Z,95585.00
2024-05-09T03:55:23.622Z,95585.00
2024-05-09T03:56:23.667Z,95587.00
2024-05-09T03:57:23.667Z,95585.00
2024-05-09T03:58:23.693Z,95588.00
2024-05-09T03:59:23.827Z,95588.00
2024-05-09T04:00:31.200Z,95587.00
2024-05-09T04:01:25.108Z,95587.00
2024-05-09T04:02:24.140Z,95591.00
2024-05-09T04:03:24.387Z,95591.00
2024-05-09T04:04:24.172Z,95593.00
2024-05-09T04:05:24.285Z,95597.00
2024-05-09T04:06:24.237Z,95597.00
2024-05-09T04:07:24.310Z,95598.00
2024-05-09T04:08:24.513Z,95599.00
2024-05-09T04:09:24.423Z,95603.00
2024-05-09T04:10:31.249Z,95602.00
2024-05-09T04:11:25.551Z,95604.00
2024-05-09T04:12:24.496Z,95603.00
2024-05-09T04:13:24.447Z,95607.00
2024-05-09T04:14:24.497Z,95605.00
2024-05-09T04:15:24.439Z,95603.00
2024-05-09T04:16:24.470Z,95604.00
2024-05-09T04:17:24.543Z,95603.00
2024-05-09T04:18:24.587Z,95602.00
2024-05-09T04:19:24.697Z,95603.00
2024-05-09T04:20:33.940Z,95603.00
2024-05-09T04:21:25.452Z,95602.00
2024-05-09T04:22:24.513Z,95603.00
2024-05-09T04:23:24.613Z,95602.00
2024-05-09T04:24:31.799Z,95604.00
2024-05-09T04:25:31.815Z,95603.00
2024-05-09T04:26:31.846Z,95605.00
2024-05-09T04:27:31.810Z,95604.00
2024-05-09T04:28:31.825Z,95606.00
2024-05-09T04:29:31.905Z,95609.00
2024-05-09T04:30:37.809Z,95611.00
2024-05-09T04:31:44.093Z,95611.00
2024-05-09T04:32:44.105Z,95612.00
2024-05-09T04:33:44.093Z,95612.00
2024-05-09T04:34:43.940Z,95611.00
2024-05-09T04:35:44.389Z,95612.00
2024-05-09T04:36:44.734Z,95611.00
2024-05-09T04:37:43.935Z,95612.00
2024-05-09T04:38:43.931Z,95611.00
2024-05-09T04:39:43.920Z,95612.00
2024-05-09T04:40:43.927Z,95613.00
2024-05-09T04:41:43.888Z,95612.00
2024-05-09T04:42:43.912Z,95610.00
2024-05-09T04:43:43.926Z,95612.00
2024-05-09T04:44:43.891Z,95611.00
2024-05-09T04:45:43.910Z,95612.00
2024-05-09T04:46:43.999Z,95611.00
2024-05-09T04:47:43.998Z,95614.00
2024-05-09T04:48:44.026Z,95614.00
2024-05-09T04:49:43.979Z,95614.00
2024-05-09T04:50:44.147Z,95616.00
2024-05-09T04:51:43.962Z,95616.00
2024-05-09T04:52:43.983Z,95619.00
2024-05-09T04:53:44.115Z,95620.00
2024-05-09T04:54:43.925Z,95621.00
2024-05-09T04:55:43.935Z,95621.00
2024-05-09T04:56:43.968Z,95622.00
2024-05-09T04:57:43.888Z,95621.00
2024-05-09T04:58:43.923Z,95621.00
2024-05-09T04:59:43.910Z,95619.00
2024-05-09T05:00:43.980Z,95620.00
2024-05-09T05:01:43.962Z,95622.00
2024-05-09T05:02:44.019Z,95623.00
2024-05-09T05:03:44.180Z,95623.00
2024-05-09T05:04:44.043Z,95625.00
2024-05-09T05:05:45.209Z,95624.00
2024-05-09T05:06:43.962Z,95624.00
2024-05-09T05:07:44.006Z,95623.00
2024-05-09T05:08:43.918Z,95622.00
2024-05-09T05:09:43.975Z,95624.00
2024-05-09T05:10:43.990Z,95623.00
2024-05-09T05:11:44.062Z,95620.00
2024-05-09T05:12:43.917Z,95623.00
2024-05-09T05:13:44.052Z,95624.00
2024-05-09T05:14:44.010Z,95623.00
2024-05-09T05:15:44.018Z,95624.00
2024-05-09T05:16:44.025Z,95624.00
2024-05-09T05:17:44.162Z,95625.00
2024-05-09T05:18:44.228Z,95625.00
2024-05-09T05:19:44.333Z,95628.00
2024-05-09T05:20:44.340Z,95628.00
2024-05-09T05:21:44.192Z,95626.00
2024-05-09T05:22:44.272Z,95627.00
2024-05-09T05:23:44.344Z,95625.00
2024-05-09T05:24:44.326Z,95628.00
2024-05-09T05:25:44.614Z,95626.00
2024-05-09T05:26:44.496Z,95628.00
2024-05-09T05:27:44.405Z,95626.00
2024-05-09T05:28:44.494Z,95626.00
2024-05-09T05:29:44.563Z,95626.00
2024-05-09T05:30:44.545Z,95626.00
2024-05-09T05:31:44.652Z,95626.00
2024-05-09T05:32:44.717Z,95630.00
2024-05-09T05:33:44.755Z,95631.00
2024-05-09T05:34:44.664Z,95632.00
2024-05-09T05:35:44.735Z,95634.00
2024-05-09T05:36:44.772Z,95635.00
2024-05-09T05:37:44.849Z,95635.00
2024-05-09T05:38:44.892Z,95633.00
2024-05-09T05:39:44.835Z,95635.00
2024-05-09T05:40:44.993Z,95635.00
2024-05-09T05:41:44.909Z,95636.00
2024-05-09T05:42:44.918Z,95638.00
2024-05-09T05:43:45.008Z,95637.00
2024-05-09T05:44:45.032Z,95637.00
2024-05-09T05:45:45.060Z,95637.00
2024-05-09T05:46:45.136Z,95636.00
2024-05-09T05:47:45.470Z,95636.00
2024-05-09T05:48:45.291Z,95637.00
2024-05-09T05:49:45.218Z,95635.00
2024-05-09T05:50:45.432Z,95638.00
2024-05-09T05:51:45.286Z,95637.00
2024-05-09T05:52:45.341Z,95636.00
2024-05-09T05:53:45.364Z,95637.00
2024-05-09T05:54:45.342Z,95634.00
2024-05-09T05:55:45.460Z,95634.00
2024-05-09T05:56:45.542Z,95634.00
2024-05-09T05:57:45.533Z,95635.00
2024-05-09T05:58:45.667Z,95635.00
2024-05-09T05:59:45.570Z,95635.00
2024-05-09T06:00:45.663Z,95632.00
2024-05-09T06:01:45.637Z,95633.00
2024-05-09T06:02:45.792Z,95632.00
2024-05-09T06:03:45.775Z,95630.00
2024-05-09T06:04:45.801Z,95631.00
2024-05-09T06:05:45.898Z,95629.00
2024-05-09T06:06:45.798Z,95628.00
2024-05-09T06:07:45.820Z,95630.00
2024-05-09T06:08:45.916Z,95631.00
2024-05-09T06:09:48.204Z,95631.00
2024-05-09T06:10:46.190Z,95630.00
2024-05-09T06:11:45.943Z,95631.00
2024-05-09T06:12:45.878Z,95629.00
2024-05-09T06:13:45.963Z,95630.00
2024-05-09T06:14:45.894Z,95628.00
2024-05-09T06:15:45.892Z,95630.00
2024-05-09T06:16:45.934Z,95629.00
2024-05-09T06:17:46.094Z,95628.00
2024-05-09T06:18:45.965Z,95629.00
2024-05-09T06:19:45.999Z,95628.00
2024-05-09T06:20:45.993Z,95629.00
2024-05-09T06:21:45.904Z,95627.00
2024-05-09T06:22:45.991Z,95626.00
2024-05-09T06:23:45.942Z,95624.00
2024-05-09T06:24:45.976Z,95628.00
2024-05-09T06:25:46.098Z,95625.00
2024-05-09T06:26:45.886Z,95624.00
2024-05-09T06:27:45.874Z,95624.00
2024-05-09T06:28:45.983Z,95623.00
2024-05-09T06:29:45.881Z,95624.00
2024-05-09T06:30:45.903Z,95622.00
2024-05-09T06:31:45.917Z,95622.00
2024-05-09T06:32:45.977Z,95623.00
2024-05-09T06:33:45.980Z,95621.00
2024-05-09T06:34:46.036Z,95622.00
2024-05-09T06:35:46.105Z,95621.00
2024-05-09T06:36:45.893Z,95620.00
2024-05-09T06:37:45.920Z,95618.00
2024-05-09T06:38:45.949Z,95616.00
2024-05-09T06:39:45.917Z,95615.00
2024-05-09T06:40:45.969Z,95613.00
2024-05-09T06:41:45.954Z,95615.00
2024-05-09T06:42:45.940Z,95615.00
2024-05-09T06:43:45.978Z,95614.00
2024-05-09T06:44:45.957Z,95613.00
2024-05-09T06:45:46.060Z,95614.00
2024-05-09T06:46:46.112Z,95613.00
2024-05-09T06:47:46.258Z,95613.00
2024-05-09T06:48:46.571Z,95616.00
2024-05-09T06:49:46.283Z,95616.00
2024-05-09T06:50:46.354Z,95615.00
2024-05-09T06:51:46.307Z,95619.00
2024-05-09T06:52:46.385Z,95620.00
2024-05-09T06:53:46.483Z,95620.00
2024-05-09T06:54:46.424Z,95621.00
2024-05-09T06:55:46.511Z,95620.00
2024-05-09T06:56:46.553Z,95620.00
2024-05-09T06:57:46.515Z,95620.00
2024-05-09T06:58:46.675Z,95618.00
2024-05-09T06:59:46.721Z,95616.00
2024-05-09T07:00:46.716Z,95616.00
2024-05-09T07:01:46.746Z,95615.00
2024-05-09T07:02:46.930Z,95616.00
2024-05-09T07:03:46.900Z,95616.00
2024-05-09T07:04:47.070Z,95618.00
2024-05-09T07:05:48.187Z,95617.00
2024-05-09T07:06:46.887Z,95617.00
2024-05-09T07:07:47.006Z,95619.00
2024-05-09T07:08:48.585Z,95619.00
2024-05-09T07:09:47.092Z,95619.00
2024-05-09T07:10:47.265Z,95621.00
2024-05-09T07:11:47.267Z,95621.00
2024-05-09T07:12:47.584Z,95621.00
2024-05-09T07:13:47.406Z,95619.00
2024-05-09T07:14:47.520Z,95618.00
2024-05-09T07:15:47.422Z,95619.00
2024-05-09T07:16:47.697Z,95618.00
2024-05-09T07:17:47.715Z,95619.00
2024-05-09T07:18:47.744Z,95617.00
2024-05-09T07:19:47.803Z,95615.00
2024-05-09T07:20:48.418Z,95613.00
2024-05-09T07:21:47.753Z,95613.00
2024-05-09T07:22:47.819Z,95612.00
2024-05-09T07:23:47.917Z,95609.00
2024-05-09T07:24:47.805Z,95607.00
2024-05-09T07:25:48.064Z,95605.00
2024-05-09T07:26:47.958Z,95605.00
2024-05-09T07:27:47.991Z,95605.00
2024-05-09T07:28:48.076Z,95602.00
2024-05-09T07:29:48.208Z,95603.00
2024-05-09T07:30:48.256Z,95603.00
2024-05-09T07:31:49.109Z,95600.00
2024-05-09T07:32:48.465Z,95599.00
2024-05-09T07:33:48.366Z,95601.00
2024-05-09T07:34:48.390Z,95600.00
2024-05-09T07:35:48.464Z,95602.00
2024-05-09T07:36:48.465Z,95603.00
2024-05-09T07:37:48.505Z,95604.00
2024-05-09T07:38:48.523Z,95605.00
2024-05-09T07:39:48.528Z,95605.00
2024-05-09T07:40:48.683Z,95606.00
2024-05-09T07:41:48.646Z,95604.00
2024-05-09T07:42:48.754Z,95605.00
2024-05-09T07:43:48.812Z,95604.00
2024-05-09T07:44:48.761Z,95602.00
2024-05-09T07:45:53.447Z,95602.00
2024-05-09T07:47:52.190Z,95600.00
2024-05-09T07:49:13.661Z,95599.00
2024-05-09T07:53:17.534Z,95596.00
2024-05-09T07:53:35.251Z,95595.00
2024-05-09T07:53:52.525Z,95593.00
2024-05-09T07:54:50.017Z,95592.00
2024-05-09T07:55:48.972Z,95591.00
2024-05-09T07:56:49.014Z,95590.00
2024-05-09T07:57:48.873Z,95591.00
2024-05-09T07:58:48.865Z,95590.00
2024-05-09T07:59:48.888Z,95590.00
2024-05-09T08:00:48.929Z,95590.00
2024-05-09T08:01:48.876Z,95590.00
2024-05-09T08:02:48.851Z,95589.00
2024-05-09T08:03:49.085Z,95589.00
2024-05-09T08:04:49.019Z,95591.00
2024-05-09T08:05:48.929Z,95590.00
2024-05-09T08:06:48.847Z,95590.00
2024-05-09T08:07:48.869Z,95591.00
2024-05-09T08:08:49.147Z,95592.00
2024-05-09T08:09:48.907Z,95592.00
2024-05-09T08:10:48.850Z,95589.00
2024-05-09T08:11:48.909Z,95587.00
2024-05-09T08:12:48.975Z,95588.00
2024-05-09T08:13:48.862Z,95584.00
2024-05-09T08:14:48.880Z,95588.00
2024-05-09T08:15:48.930Z,95586.00
2024-05-09T08:16:48.865Z,95587.00
2024-05-09T08:17:48.989Z,95584.00
2024-05-09T08:18:48.997Z,95585.00
2024-05-09T08:19:48.896Z,95585.00
2024-05-09T08:20:48.950Z,95580.00
2024-05-09T08:21:48.995Z,95584.00
2024-05-09T08:22:48.967Z,95585.00
2024-05-09T08:23:49.038Z,95583.00
2024-05-09T08:24:49.108Z,95582.00
2024-05-09T08:25:49.136Z,95582.00
2024-05-09T08:26:49.214Z,95582.00
2024-05-09T08:27:49.251Z,95580.00
2024-05-09T08:28:49.266Z,95580.00
2024-05-09T08:29:49.401Z,95578.00
2024-05-09T08:30:49.523Z,95576.00
2024-05-09T08:31:49.431Z,95576.00
2024-05-09T08:32:49.492Z,95576.00
2024-05-09T08:33:49.645Z,95579.00
2024-05-09T08:34:49.593Z,95577.00
2024-05-09T08:35:49.608Z,95577.00
2024-05-09T08:36:49.666Z,95579.00
2024-05-09T08:37:49.720Z,95578.00
2024-05-09T08:38:49.690Z,95578.00
2024-05-09T08:39:49.735Z,95578.00
2024-05-09T08:40:49.995Z,95578.00
2024-05-09T08:41:49.892Z,95579.00
2024-05-09T08:42:49.949Z,95576.00
2024-05-09T08:43:49.971Z,95577.00
2024-05-09T08:44:50.065Z,95574.00
2024-05-09T08:45:50.279Z,95576.00
2024-05-09T08:46:50.091Z,95575.00
2024-05-09T08:47:50.241Z,95576.00
2024-05-09T08:48:50.467Z,95576.00
2024-05-09T08:49:50.299Z,95575.00
2024-05-09T08:50:50.330Z,95574.00
2024-05-09T08:51:50.336Z,95575.00
2024-05-09T08:52:50.405Z,95572.00
2024-05-09T08:53:50.456Z,95573.00
2024-05-09T08:54:50.533Z,95572.00
2024-05-09T08:55:50.523Z,95568.00
2024-05-09T08:56:50.559Z,95570.00
2024-05-09T08:57:50.678Z,95568.00
2024-05-09T08:58:50.687Z,95567.00
2024-05-09T08:59:50.768Z,95568.00
2024-05-09T09:00:50.933Z,95565.00
2024-05-09T09:01:50.814Z,95565.00
2024-05-09T09:02:50.990Z,95566.00
2024-05-09T09:03:50.957Z,95566.00
2024-05-09T09:04:51.024Z,95565.00
2024-05-09T09:05:50.995Z,95563.00
2024-05-09T09:06:52.550Z,95562.00
2024-05-09T09:07:51.012Z,95560.00
2024-05-09T09:08:51.068Z,95559.00
2024-05-09T09:09:51.140Z,95558.00
2024-05-09T09:10:51.197Z,95558.00
2024-05-09T09:11:51.226Z,95558.00
2024-05-09T09:12:51.274Z,95557.00
2024-05-09T09:13:51.312Z,95557.00
2024-05-09T09:14:51.372Z,95557.00
2024-05-09T09:15:51.413Z,95558.00
2024-05-09T09:16:51.495Z,95557.00
2024-05-09T09:17:51.597Z,95556.00
2024-05-09T09:18:51.822Z,95556.00
2024-05-09T09:19:51.626Z,95552.00
2024-05-09T09:20:51.619Z,95550.00
2024-05-09T09:21:51.679Z,95552.00
2024-05-09T09:22:51.732Z,95550.00
2024-05-09T09:23:51.751Z,95550.00
2024-05-09T09:24:51.889Z,95551.00
2024-05-09T09:25:51.868Z,95549.00
2024-05-09T09:26:51.900Z,95548.00
2024-05-09T09:27:51.944Z,95548.00
2024-05-09T09:28:51.982Z,95546.00
2024-05-09T09:29:51.991Z,95544.00
2024-05-09T09:30:52.142Z,95546.00
2024-05-09T09:31:52.082Z,95543.00
2024-05-09T09:32:52.238Z,95544.00
2024-05-09T09:33:52.379Z,95543.00
2024-05-09T09:34:52.222Z,95545.00
2024-05-09T09:35:52.245Z,95542.00
2024-05-09T09:36:52.320Z,95543.00
2024-05-09T09:37:52.344Z,95540.00
2024-05-09T09:38:52.386Z,95539.00
2024-05-09T09:39:52.509Z,95541.00
2024-05-09T09:40:52.570Z,95538.00
2024-05-09T09:41:52.516Z,95534.00
2024-05-09T09:42:52.641Z,95533.00
2024-05-09T09:43:52.643Z,95530.00
2024-05-09T09:45:01.953Z,95527.00
2024-05-09T09:45:54.075Z,95525.00
2024-05-09T09:46:52.747Z,95526.00
2024-05-09T09:47:52.909Z,95524.00
2024-05-09T09:48:52.730Z,95523.00
2024-05-09T09:49:52.703Z,95522.00
2024-05-09T09:50:52.737Z,95521.00
2024-05-09T09:51:52.761Z,95521.00
2024-05-09T09:52:52.721Z,95522.00
2024-05-09T09:53:52.693Z,95522.00
2024-05-09T09:54:52.751Z,95521.00
2024-05-09T09:55:52.779Z,95520.00
2024-05-09T09:56:52.739Z,95521.00
2024-05-09T09:57:52.832Z,95519.00
2024-05-09T09:58:52.872Z,95518.00
2024-05-09T09:59:52.983Z,95518.00
2024-05-09T10:00:53.014Z,95514.00
2024-05-09T10:01:53.221Z,95513.00
2024-05-09T10:02:53.036Z,95514.00
2024-05-09T10:03:53.354Z,95510.00
2024-05-09T10:04:53.251Z,95510.00
2024-05-09T10:05:53.227Z,95508.00
2024-05-09T10:06:53.232Z,95504.00
2024-05-09T10:07:53.246Z,95504.00
2024-05-09T10:08:53.322Z,95504.00
2024-05-09T10:09:53.335Z,95503.00
2024-05-09T10:10:53.493Z,95500.00
2024-05-09T10:11:59.708Z,95499.00
2024-05-09T10:12:54.430Z,95500.00
2024-05-09T10:13:53.456Z,95497.00
2024-05-09T10:14:53.385Z,95493.00
2024-05-09T10:15:53.966Z,95490.00
2024-05-09T10:16:53.384Z,95488.00
2024-05-09T10:17:53.441Z,95482.00
2024-05-09T10:18:53.606Z,95483.00
2024-05-09T10:19:53.446Z,95483.00
2024-05-09T10:20:53.405Z,95480.00
2024-05-09T10:21:53.410Z,95478.00
2024-05-09T10:22:53.425Z,95477.00
2024-05-09T10:23:53.428Z,95476.00
2024-05-09T10:24:53.528Z,95477.00
2024-05-09T10:25:53.476Z,95478.00
2024-05-09T10:26:53.520Z,95476.00
2024-05-09T10:27:53.590Z,95476.00
2024-05-09T10:28:53.601Z,95474.00
2024-05-09T10:29:53.667Z,95475.00
2024-05-09T10:30:53.790Z,95471.00
2024-05-09T10:31:53.792Z,95474.00
2024-05-09T10:32:54.253Z,95473.00
2024-05-09T10:33:53.993Z,95470.00
2024-05-09T10:34:53.957Z,95472.00
2024-05-09T10:35:53.919Z,95468.00
2024-05-09T10:36:54.097Z,95468.00
2024-05-09T10:37:54.031Z,95466.00
2024-05-09T10:38:54.121Z,95463.00
2024-05-09T10:39:54.217Z,95464.00
2024-05-09T10:40:54.175Z,95462.00
2024-05-09T10:41:54.195Z,95461.00
2024-05-09T10:42:54.305Z,95462.00
2024-05-09T10:43:54.264Z,95462.00
2024-05-09T10:44:54.349Z,95462.00
2024-05-09T10:45:54.388Z,95459.00
2024-05-09T10:46:54.474Z,95459.00
2024-05-09T10:47:54.569Z,95458.00
2024-05-09T10:48:54.535Z,95457.00
2024-05-09T10:49:54.656Z,95456.00
2024-05-09T10:50:54.595Z,95458.00
2024-05-09T10:51:54.674Z,95457.00
2024-05-09T10:52:54.653Z,95455.00
2024-05-09T10:53:54.710Z,95455.00
2024-05-09T10:54:54.846Z,95454.00
2024-05-09T10:55:54.774Z,95453.00
2024-05-09T10:56:54.839Z,95453.00
2024-05-09T10:57:54.963Z,95449.00
2024-05-09T10:58:54.936Z,95446.00
2024-05-09T10:59:54.962Z,95446.00
2024-05-09T11:00:55.260Z,95442.00
2024-05-09T11:01:55.090Z,95441.00
2024-05-09T11:02:55.198Z,95441.00
2024-05-09T11:03:55.248Z,95438.00
2024-05-09T11:04:55.382Z,95437.00
2024-05-09T11:05:55.258Z,95434.00
2024-05-09T11:06:55.680Z,95434.00
2024-05-09T11:07:55.329Z,95431.00
2024-05-09T11:08:55.341Z,95431.00
2024-05-09T11:09:55.435Z,95430.00
2024-05-09T11:10:55.520Z,95426.00
2024-05-09T11:11:55.592Z,95425.00
2024-05-09T11:12:55.564Z,95426.00
2024-05-09T11:13:55.563Z,95424.00
2024-05-09T11:14:55.623Z,95423.00
2024-05-09T11:15:55.747Z,95423.00
2024-05-09T11:16:55.758Z,95423.00
2024-05-09T11:17:55.913Z,95423.00
2024-05-09T11:18:56.302Z,95423.00
2024-05-09T11:19:55.881Z,95422.00
2024-05-09T11:20:55.887Z,95420.00
2024-05-09T11:21:55.992Z,95417.00
2024-05-09T11:22:55.937Z,95418.00
2024-05-09T11:23:56.006Z,95415.00
2024-05-09T11:24:56.045Z,95416.00
2024-05-09T11:25:56.059Z,95414.00
2024-05-09T11:26:56.080Z,95414.00
2024-05-09T11:27:56.183Z,95414.00
2024-05-09T11:28:56.193Z,95413.00
2024-05-09T11:29:56.190Z,95413.00
2024-05-09T11:30:56.308Z,95411.00
2024-05-09T11:31:56.371Z,95412.00
2024-05-09T11:32:56.517Z,95411.00
2024-05-09T11:33:56.742Z,95411.00
2024-05-09T11:34:56.423Z,95411.00
2024-05-09T11:35:56.410Z,95411.00
2024-05-09T11:36:56.547Z,95410.00
2024-05-09T11:37:56.525Z,95408.00
2024-05-09T11:38:56.562Z,95407.00
2024-05-09T11:39:56.709Z,95404.00
2024-05-09T11:40:56.589Z,95404.00
2024-05-09T11:41:56.643Z,95402.00
2024-05-09T11:42:56.740Z,95400.00
2024-05-09T11:43:56.695Z,95397.00
2024-05-09T11:44:56.760Z,95395.00
2024-05-09T11:45:56.853Z,95393.00
2024-05-09T11:46:56.897Z,95391.00
2024-05-09T11:47:56.958Z,95390.00
2024-05-09T11:48:57.027Z,95387.00
2024-05-09T11:49:57.094Z,95387.00
2024-05-09T11:50:57.055Z,95384.00